sensor_id;sensor_type;location;lat;lon;timestamp;temperature;humidity
7902;DHT22;3996;49.674;10.716;2023-11-22T00:01:29;5.10;25.80
7902;DHT22;3996;49.674;10.716;2023-11-22T00:03:54;5.20;27.10
7902;DHT22;3996;49.674;10.716;2023-11-22T00:06:20;5.20;26.70
7902;DHT22;3996;49.674;10.716;2023-11-22T00:08:46;5.20;26.50
7902;DHT22;3996;49.674;10.716;2023-11-22T00:11:12;5.20;26.50
7902;DHT22;3996;49.674;10.716;2023-11-22T00:13:40;5.20;26.50
7902;DHT22;3996;49.674;10.716;2023-11-22T00:16:05;5.20;26.70
7902;DHT22;3996;49.674;10.716;2023-11-22T00:18:34;5.10;26.40
7902;DHT22;3996;49.674;10.716;2023-11-22T00:21:03;5.10;26.50
7902;DHT22;3996;49.674;10.716;2023-11-22T00:23:28;5.10;26.70
7902;DHT22;3996;49.674;10.716;2023-11-22T00:25:55;5.10;26.50
7902;DHT22;3996;49.674;10.716;2023-11-22T00:28:22;5.00;27.10
7902;DHT22;3996;49.674;10.716;2023-11-22T00:30:48;5.10;27.50
7902;DHT22;3996;49.674;10.716;2023-11-22T00:33:13;5.10;27.80
7902;DHT22;3996;49.674;10.716;2023-11-22T00:35:40;5.10;27.40
7902;DHT22;3996;49.674;10.716;2023-11-22T00:38:05;5.00;27.00
7902;DHT22;3996;49.674;10.716;2023-11-22T00:40:31;5.00;27.20
7902;DHT22;3996;49.674;10.716;2023-11-22T00:42:57;5.10;27.60
7902;DHT22;3996;49.674;10.716;2023-11-22T00:45:23;5.00;27.00
7902;DHT22;3996;49.674;10.716;2023-11-22T00:47:49;5.00;27.40
7902;DHT22;3996;49.674;10.716;2023-11-22T00:50:15;5.00;28.30
7902;DHT22;3996;49.674;10.716;2023-11-22T00:52:45;5.10;27.90
7902;DHT22;3996;49.674;10.716;2023-11-22T00:55:11;5.10;28.00
7902;DHT22;3996;49.674;10.716;2023-11-22T00:57:36;5.00;27.20
7902;DHT22;3996;49.674;10.716;2023-11-22T01:00:03;5.00;27.80
7902;DHT22;3996;49.674;10.716;2023-11-22T01:02:29;5.00;27.50
7902;DHT22;3996;49.674;10.716;2023-11-22T01:04:55;5.00;27.80
7902;DHT22;3996;49.674;10.716;2023-11-22T01:07:21;5.00;27.40
7902;DHT22;3996;49.674;10.716;2023-11-22T01:09:47;5.00;27.60
7902;DHT22;3996;49.674;10.716;2023-11-22T01:12:12;5.00;27.80
7902;DHT22;3996;49.674;10.716;2023-11-22T01:14:38;5.00;27.90
7902;DHT22;3996;49.674;10.716;2023-11-22T01:17:04;5.00;27.70
7902;DHT22;3996;49.674;10.716;2023-11-22T01:19:30;5.00;27.80
7902;DHT22;3996;49.674;10.716;2023-11-22T01:21:55;5.00;27.90
7902;DHT22;3996;49.674;10.716;2023-11-22T01:24:21;5.00;28.70
7902;DHT22;3996;49.674;10.716;2023-11-22T01:26:46;5.00;28.20
7902;DHT22;3996;49.674;10.716;2023-11-22T01:29:12;5.00;28.00
7902;DHT22;3996;49.674;10.716;2023-11-22T01:31:37;5.00;28.00
7902;DHT22;3996;49.674;10.716;2023-11-22T01:34:03;5.00;27.60
7902;DHT22;3996;49.674;10.716;2023-11-22T01:36:29;4.90;27.70
7902;DHT22;3996;49.674;10.716;2023-11-22T01:38:55;4.80;28.00
7902;DHT22;3996;49.674;10.716;2023-11-22T01:41:21;4.80;28.20
7902;DHT22;3996;49.674;10.716;2023-11-22T01:43:46;4.80;28.50
7902;DHT22;3996;49.674;10.716;2023-11-22T01:46:21;4.80;28.60
7902;DHT22;3996;49.674;10.716;2023-11-22T01:48:48;4.80;28.20
7902;DHT22;3996;49.674;10.716;2023-11-22T01:51:13;4.80;28.60
7902;DHT22;3996;49.674;10.716;2023-11-22T01:53:39;4.80;28.20
7902;DHT22;3996;49.674;10.716;2023-11-22T01:56:05;4.70;28.10
7902;DHT22;3996;49.674;10.716;2023-11-22T01:58:30;4.60;28.10
7902;DHT22;3996;49.674;10.716;2023-11-22T02:00:56;4.60;28.40
7902;DHT22;3996;49.674;10.716;2023-11-22T02:03:23;4.60;28.50
7902;DHT22;3996;49.674;10.716;2023-11-22T02:05:49;4.50;28.70
7902;DHT22;3996;49.674;10.716;2023-11-22T02:08:15;4.50;28.60
7902;DHT22;3996;49.674;10.716;2023-11-22T02:10:41;4.50;28.80
7902;DHT22;3996;49.674;10.716;2023-11-22T02:13:07;4.60;29.30
7902;DHT22;3996;49.674;10.716;2023-11-22T02:15:36;4.50;29.30
7902;DHT22;3996;49.674;10.716;2023-11-22T02:18:02;4.50;28.90
7902;DHT22;3996;49.674;10.716;2023-11-22T02:20:28;4.50;29.80
7902;DHT22;3996;49.674;10.716;2023-11-22T02:22:54;4.50;29.50
7902;DHT22;3996;49.674;10.716;2023-11-22T02:25:19;4.50;29.40
7902;DHT22;3996;49.674;10.716;2023-11-22T02:27:45;4.50;29.90
7902;DHT22;3996;49.674;10.716;2023-11-22T02:30:11;4.50;29.50
7902;DHT22;3996;49.674;10.716;2023-11-22T02:32:36;4.50;29.20
7902;DHT22;3996;49.674;10.716;2023-11-22T02:35:02;4.50;29.40
7902;DHT22;3996;49.674;10.716;2023-11-22T02:37:32;4.60;29.70
7902;DHT22;3996;49.674;10.716;2023-11-22T02:42:26;4.50;28.90
7902;DHT22;3996;49.674;10.716;2023-11-22T02:44:52;4.50;28.30
7902;DHT22;3996;49.674;10.716;2023-11-22T02:47:17;4.50;28.60
7902;DHT22;3996;49.674;10.716;2023-11-22T02:49:43;4.50;29.10
7902;DHT22;3996;49.674;10.716;2023-11-22T02:52:09;4.50;28.40
7902;DHT22;3996;49.674;10.716;2023-11-22T02:54:37;4.40;28.30
7902;DHT22;3996;49.674;10.716;2023-11-22T02:57:02;4.40;27.70
7902;DHT22;3996;49.674;10.716;2023-11-22T02:59:28;4.40;27.50
7902;DHT22;3996;49.674;10.716;2023-11-22T03:01:53;4.30;27.30
7902;DHT22;3996;49.674;10.716;2023-11-22T03:04:19;4.30;27.20
7902;DHT22;3996;49.674;10.716;2023-11-22T03:06:44;4.20;27.30
7902;DHT22;3996;49.674;10.716;2023-11-22T03:09:10;4.20;27.80
7902;DHT22;3996;49.674;10.716;2023-11-22T03:11:36;4.20;27.70
7902;DHT22;3996;49.674;10.716;2023-11-22T03:14:02;4.30;27.40
7902;DHT22;3996;49.674;10.716;2023-11-22T03:16:29;4.20;27.00
7902;DHT22;3996;49.674;10.716;2023-11-22T03:18:54;4.20;27.50
7902;DHT22;3996;49.674;10.716;2023-11-22T03:21:20;4.10;27.30
7902;DHT22;3996;49.674;10.716;2023-11-22T03:23:46;4.10;27.40
7902;DHT22;3996;49.674;10.716;2023-11-22T03:26:12;4.10;27.40
7902;DHT22;3996;49.674;10.716;2023-11-22T03:28:37;4.00;27.60
7902;DHT22;3996;49.674;10.716;2023-11-22T03:31:03;4.00;27.70
7902;DHT22;3996;49.674;10.716;2023-11-22T03:33:30;4.00;27.80
7902;DHT22;3996;49.674;10.716;2023-11-22T03:35:56;4.00;28.00
7902;DHT22;3996;49.674;10.716;2023-11-22T03:38:24;4.00;27.70
7902;DHT22;3996;49.674;10.716;2023-11-22T03:40:50;4.00;28.00
7902;DHT22;3996;49.674;10.716;2023-11-22T03:43:15;4.10;27.70
7902;DHT22;3996;49.674;10.716;2023-11-22T03:45:41;4.10;28.10
7902;DHT22;3996;49.674;10.716;2023-11-22T03:48:06;4.00;27.80
7902;DHT22;3996;49.674;10.716;2023-11-22T03:50:32;4.00;28.00
7902;DHT22;3996;49.674;10.716;2023-11-22T03:52:57;4.00;28.00
7902;DHT22;3996;49.674;10.716;2023-11-22T03:55:23;4.00;28.00
7902;DHT22;3996;49.674;10.716;2023-11-22T03:57:48;4.00;28.00
7902;DHT22;3996;49.674;10.716;2023-11-22T04:00:14;4.00;28.00
7902;DHT22;3996;49.674;10.716;2023-11-22T04:02:39;4.10;28.40
7902;DHT22;3996;49.674;10.716;2023-11-22T04:05:05;4.10;28.10
7902;DHT22;3996;49.674;10.716;2023-11-22T04:07:32;4.10;28.40
7902;DHT22;3996;49.674;10.716;2023-11-22T04:09:57;4.10;28.10
7902;DHT22;3996;49.674;10.716;2023-11-22T04:12:23;4.20;28.20
7902;DHT22;3996;49.674;10.716;2023-11-22T04:14:50;4.20;28.10
7902;DHT22;3996;49.674;10.716;2023-11-22T04:17:17;4.10;28.10
7902;DHT22;3996;49.674;10.716;2023-11-22T04:19:42;4.10;28.00
7902;DHT22;3996;49.674;10.716;2023-11-22T04:22:07;4.10;28.10
7902;DHT22;3996;49.674;10.716;2023-11-22T04:24:33;4.10;28.70
7902;DHT22;3996;49.674;10.716;2023-11-22T04:26:58;4.10;28.10
7902;DHT22;3996;49.674;10.716;2023-11-22T04:29:24;4.00;28.80
7902;DHT22;3996;49.674;10.716;2023-11-22T04:31:50;4.00;28.30
7902;DHT22;3996;49.674;10.716;2023-11-22T04:34:15;4.00;28.20
7902;DHT22;3996;49.674;10.716;2023-11-22T04:36:41;4.00;28.00
7902;DHT22;3996;49.674;10.716;2023-11-22T04:39:06;3.90;28.20
7902;DHT22;3996;49.674;10.716;2023-11-22T04:41:32;4.00;28.20
7902;DHT22;3996;49.674;10.716;2023-11-22T04:43:58;4.00;28.80
7902;DHT22;3996;49.674;10.716;2023-11-22T04:46:23;3.90;28.70
7902;DHT22;3996;49.674;10.716;2023-11-22T04:48:49;3.90;28.70
7902;DHT22;3996;49.674;10.716;2023-11-22T04:51:16;3.90;28.60
7902;DHT22;3996;49.674;10.716;2023-11-22T04:53:42;3.90;29.10
7902;DHT22;3996;49.674;10.716;2023-11-22T04:56:09;4.00;29.50
7902;DHT22;3996;49.674;10.716;2023-11-22T04:58:34;4.00;29.00
7902;DHT22;3996;49.674;10.716;2023-11-22T05:01:01;4.00;28.90
7902;DHT22;3996;49.674;10.716;2023-11-22T05:03:27;4.00;29.00
7902;DHT22;3996;49.674;10.716;2023-11-22T05:05:53;4.00;30.00
7902;DHT22;3996;49.674;10.716;2023-11-22T05:08:18;3.90;29.40
7902;DHT22;3996;49.674;10.716;2023-11-22T05:10:43;4.00;29.30
7902;DHT22;3996;49.674;10.716;2023-11-22T05:13:09;4.00;29.30
7902;DHT22;3996;49.674;10.716;2023-11-22T05:15:35;3.90;29.20
7902;DHT22;3996;49.674;10.716;2023-11-22T05:18:00;3.90;29.40
7902;DHT22;3996;49.674;10.716;2023-11-22T05:20:27;3.90;29.80
7902;DHT22;3996;49.674;10.716;2023-11-22T05:22:52;4.00;29.60
7902;DHT22;3996;49.674;10.716;2023-11-22T05:25:18;3.90;29.50
7902;DHT22;3996;49.674;10.716;2023-11-22T05:27:43;3.90;29.70
7902;DHT22;3996;49.674;10.716;2023-11-22T05:30:09;3.90;29.30
7902;DHT22;3996;49.674;10.716;2023-11-22T05:32:36;3.90;29.10
7902;DHT22;3996;49.674;10.716;2023-11-22T05:35:01;3.80;28.60
7902;DHT22;3996;49.674;10.716;2023-11-22T05:37:28;3.70;27.30
7902;DHT22;3996;49.674;10.716;2023-11-22T05:39:54;3.60;26.80
7902;DHT22;3996;49.674;10.716;2023-11-22T05:42:20;3.50;26.60
7902;DHT22;3996;49.674;10.716;2023-11-22T05:44:45;3.40;26.40
7902;DHT22;3996;49.674;10.716;2023-11-22T05:47:11;3.40;26.90
7902;DHT22;3996;49.674;10.716;2023-11-22T05:49:38;3.40;26.80
7902;DHT22;3996;49.674;10.716;2023-11-22T05:52:03;3.30;26.80
7902;DHT22;3996;49.674;10.716;2023-11-22T05:54:30;3.30;26.30
7902;DHT22;3996;49.674;10.716;2023-11-22T05:56:55;3.20;26.30
7902;DHT22;3996;49.674;10.716;2023-11-22T05:59:21;3.20;26.60
7902;DHT22;3996;49.674;10.716;2023-11-22T06:01:46;3.30;26.50
7902;DHT22;3996;49.674;10.716;2023-11-22T06:04:11;3.20;26.70
7902;DHT22;3996;49.674;10.716;2023-11-22T06:06:37;3.20;26.40
7902;DHT22;3996;49.674;10.716;2023-11-22T06:09:02;3.20;26.60
7902;DHT22;3996;49.674;10.716;2023-11-22T06:11:30;3.20;26.60
7902;DHT22;3996;49.674;10.716;2023-11-22T06:13:56;3.20;26.30
7902;DHT22;3996;49.674;10.716;2023-11-22T06:16:22;3.20;26.30
7902;DHT22;3996;49.674;10.716;2023-11-22T06:18:47;3.20;26.60
7902;DHT22;3996;49.674;10.716;2023-11-22T06:21:13;3.20;26.40
7902;DHT22;3996;49.674;10.716;2023-11-22T06:23:38;3.20;26.30
7902;DHT22;3996;49.674;10.716;2023-11-22T06:26:04;3.20;26.40
7902;DHT22;3996;49.674;10.716;2023-11-22T06:28:29;3.20;26.70
7902;DHT22;3996;49.674;10.716;2023-11-22T06:30:55;3.20;26.20
7902;DHT22;3996;49.674;10.716;2023-11-22T06:33:20;3.20;26.40
7902;DHT22;3996;49.674;10.716;2023-11-22T06:35:46;3.20;26.30
7902;DHT22;3996;49.674;10.716;2023-11-22T06:38:11;3.20;26.40
7902;DHT22;3996;49.674;10.716;2023-11-22T06:40:36;3.10;26.70
7902;DHT22;3996;49.674;10.716;2023-11-22T06:43:02;3.10;27.00
7902;DHT22;3996;49.674;10.716;2023-11-22T06:45:30;3.20;26.90
7902;DHT22;3996;49.674;10.716;2023-11-22T06:47:56;3.20;26.70
7902;DHT22;3996;49.674;10.716;2023-11-22T06:50:22;3.20;26.60
7902;DHT22;3996;49.674;10.716;2023-11-22T06:52:47;3.20;26.70
7902;DHT22;3996;49.674;10.716;2023-11-22T06:55:15;3.10;27.00
7902;DHT22;3996;49.674;10.716;2023-11-22T06:57:40;3.10;27.10
7902;DHT22;3996;49.674;10.716;2023-11-22T07:00:06;3.10;27.40
7902;DHT22;3996;49.674;10.716;2023-11-22T07:02:34;3.10;27.40
7902;DHT22;3996;49.674;10.716;2023-11-22T07:05:03;3.20;27.50
7902;DHT22;3996;49.674;10.716;2023-11-22T07:07:29;3.20;27.50
7902;DHT22;3996;49.674;10.716;2023-11-22T07:09:55;3.10;27.80
7902;DHT22;3996;49.674;10.716;2023-11-22T07:12:21;3.10;28.00
7902;DHT22;3996;49.674;10.716;2023-11-22T07:14:47;3.20;28.10
7902;DHT22;3996;49.674;10.716;2023-11-22T07:17:15;3.20;28.20
7902;DHT22;3996;49.674;10.716;2023-11-22T07:19:40;3.10;28.70
7902;DHT22;3996;49.674;10.716;2023-11-22T07:22:12;3.10;28.70
7902;DHT22;3996;49.674;10.716;2023-11-22T07:24:41;3.10;29.40
7902;DHT22;3996;49.674;10.716;2023-11-22T07:27:11;3.10;29.70
7902;DHT22;3996;49.674;10.716;2023-11-22T07:29:39;3.20;29.40
7902;DHT22;3996;49.674;10.716;2023-11-22T07:32:05;3.20;29.90
7902;DHT22;3996;49.674;10.716;2023-11-22T07:34:30;3.20;29.90
7902;DHT22;3996;49.674;10.716;2023-11-22T07:36:56;3.20;30.60
7902;DHT22;3996;49.674;10.716;2023-11-22T07:39:21;3.20;30.00
7902;DHT22;3996;49.674;10.716;2023-11-22T07:41:53;3.10;30.20
7902;DHT22;3996;49.674;10.716;2023-11-22T07:44:18;3.10;30.50
7902;DHT22;3996;49.674;10.716;2023-11-22T07:46:44;3.10;30.50
7902;DHT22;3996;49.674;10.716;2023-11-22T07:49:12;3.10;30.80
7902;DHT22;3996;49.674;10.716;2023-11-22T07:51:39;3.10;30.80
7902;DHT22;3996;49.674;10.716;2023-11-22T07:54:05;3.10;30.80
7902;DHT22;3996;49.674;10.716;2023-11-22T07:56:31;3.10;30.90
7902;DHT22;3996;49.674;10.716;2023-11-22T07:58:58;3.10;30.80
7902;DHT22;3996;49.674;10.716;2023-11-22T08:01:23;3.10;30.40
7902;DHT22;3996;49.674;10.716;2023-11-22T08:03:50;3.10;30.50
7902;DHT22;3996;49.674;10.716;2023-11-22T08:06:17;3.10;29.70
7902;DHT22;3996;49.674;10.716;2023-11-22T08:08:43;3.00;29.30
7902;DHT22;3996;49.674;10.716;2023-11-22T08:11:11;3.00;29.80
7902;DHT22;3996;49.674;10.716;2023-11-22T08:13:40;3.10;29.30
7902;DHT22;3996;49.674;10.716;2023-11-22T08:16:08;3.10;29.10
7902;DHT22;3996;49.674;10.716;2023-11-22T08:18:34;3.00;28.70
7902;DHT22;3996;49.674;10.716;2023-11-22T08:21:00;3.10;28.60
7902;DHT22;3996;49.674;10.716;2023-11-22T08:23:25;3.10;28.80
7902;DHT22;3996;49.674;10.716;2023-11-22T08:25:52;3.10;28.70
7902;DHT22;3996;49.674;10.716;2023-11-22T08:28:18;3.20;29.10
7902;DHT22;3996;49.674;10.716;2023-11-22T08:30:44;3.30;28.80
7902;DHT22;3996;49.674;10.716;2023-11-22T08:33:09;3.30;28.70
7902;DHT22;3996;49.674;10.716;2023-11-22T08:35:35;3.30;27.80
7902;DHT22;3996;49.674;10.716;2023-11-22T08:38:01;3.30;28.30
7902;DHT22;3996;49.674;10.716;2023-11-22T08:40:28;3.30;27.80
7902;DHT22;3996;49.674;10.716;2023-11-22T08:42:54;3.30;27.80
7902;DHT22;3996;49.674;10.716;2023-11-22T08:45:20;3.30;27.60
7902;DHT22;3996;49.674;10.716;2023-11-22T08:47:45;3.40;26.60
7902;DHT22;3996;49.674;10.716;2023-11-22T08:50:11;3.30;25.50
7902;DHT22;3996;49.674;10.716;2023-11-22T08:52:40;3.20;25.50
7902;DHT22;3996;49.674;10.716;2023-11-22T08:55:07;3.20;25.70
7902;DHT22;3996;49.674;10.716;2023-11-22T08:57:35;3.20;25.90
7902;DHT22;3996;49.674;10.716;2023-11-22T09:00:00;3.30;25.00
7902;DHT22;3996;49.674;10.716;2023-11-22T09:02:31;3.20;25.10
7902;DHT22;3996;49.674;10.716;2023-11-22T09:04:57;3.20;25.20
7902;DHT22;3996;49.674;10.716;2023-11-22T09:07:23;3.30;26.00
7902;DHT22;3996;49.674;10.716;2023-11-22T09:09:49;3.20;25.30
7902;DHT22;3996;49.674;10.716;2023-11-22T09:12:17;3.30;24.80
7902;DHT22;3996;49.674;10.716;2023-11-22T09:14:45;3.40;24.70
7902;DHT22;3996;49.674;10.716;2023-11-22T09:17:10;3.50;24.10
7902;DHT22;3996;49.674;10.716;2023-11-22T09:19:36;3.50;24.00
7902;DHT22;3996;49.674;10.716;2023-11-22T09:22:03;3.60;24.90
7902;DHT22;3996;49.674;10.716;2023-11-22T09:24:28;3.70;24.50
7902;DHT22;3996;49.674;10.716;2023-11-22T09:26:53;3.70;23.50
7902;DHT22;3996;49.674;10.716;2023-11-22T09:29:19;3.70;23.70
7902;DHT22;3996;49.674;10.716;2023-11-22T09:31:44;3.70;23.20
7902;DHT22;3996;49.674;10.716;2023-11-22T09:34:13;3.60;23.00
7902;DHT22;3996;49.674;10.716;2023-11-22T09:36:39;3.50;23.90
7902;DHT22;3996;49.674;10.716;2023-11-22T09:39:04;3.60;24.00
7902;DHT22;3996;49.674;10.716;2023-11-22T09:41:36;3.60;24.40
7902;DHT22;3996;49.674;10.716;2023-11-22T09:44:02;3.70;24.20
7902;DHT22;3996;49.674;10.716;2023-11-22T09:46:29;3.70;23.50
7902;DHT22;3996;49.674;10.716;2023-11-22T09:48:56;3.70;23.20
7902;DHT22;3996;49.674;10.716;2023-11-22T09:51:32;3.60;23.00
7902;DHT22;3996;49.674;10.716;2023-11-22T09:54:03;3.50;23.00
7902;DHT22;3996;49.674;10.716;2023-11-22T09:56:34;3.60;23.30
7902;DHT22;3996;49.674;10.716;2023-11-22T09:59:02;3.70;22.70
7902;DHT22;3996;49.674;10.716;2023-11-22T10:01:28;3.70;23.00
7902;DHT22;3996;49.674;10.716;2023-11-22T10:03:56;3.90;23.70
7902;DHT22;3996;49.674;10.716;2023-11-22T10:06:22;4.00;23.80
7902;DHT22;3996;49.674;10.716;2023-11-22T10:08:47;4.10;23.80
7902;DHT22;3996;49.674;10.716;2023-11-22T10:11:16;4.10;22.90
7902;DHT22;3996;49.674;10.716;2023-11-22T10:13:49;4.00;21.80
7902;DHT22;3996;49.674;10.716;2023-11-22T10:16:16;4.00;22.20
7902;DHT22;3996;49.674;10.716;2023-11-22T10:18:42;4.10;22.50
7902;DHT22;3996;49.674;10.716;2023-11-22T10:24:05;4.10;22.90
7902;DHT22;3996;49.674;10.716;2023-11-22T10:26:35;4.00;22.60
7902;DHT22;3996;49.674;10.716;2023-11-22T10:29:00;4.00;21.70
7902;DHT22;3996;49.674;10.716;2023-11-22T10:31:27;3.90;21.50
7902;DHT22;3996;49.674;10.716;2023-11-22T10:33:54;3.90;22.60
7902;DHT22;3996;49.674;10.716;2023-11-22T10:36:21;4.00;23.30
7902;DHT22;3996;49.674;10.716;2023-11-22T10:38:48;4.10;23.30
7902;DHT22;3996;49.674;10.716;2023-11-22T10:41:13;4.10;23.40
7902;DHT22;3996;49.674;10.716;2023-11-22T10:43:39;4.10;23.00
7902;DHT22;3996;49.674;10.716;2023-11-22T10:46:07;4.10;23.80
7902;DHT22;3996;49.674;10.716;2023-11-22T10:48:35;4.10;22.60
7902;DHT22;3996;49.674;10.716;2023-11-22T10:51:01;4.20;23.40
7902;DHT22;3996;49.674;10.716;2023-11-22T10:56:00;4.20;22.40
7902;DHT22;3996;49.674;10.716;2023-11-22T10:58:27;4.20;22.50
7902;DHT22;3996;49.674;10.716;2023-11-22T11:00:53;4.20;22.80
7902;DHT22;3996;49.674;10.716;2023-11-22T11:03:20;4.20;22.40
7902;DHT22;3996;49.674;10.716;2023-11-22T11:05:54;4.20;22.50
7902;DHT22;3996;49.674;10.716;2023-11-22T11:08:23;4.10;21.00
7902;DHT22;3996;49.674;10.716;2023-11-22T11:10:50;4.00;22.40
7902;DHT22;3996;49.674;10.716;2023-11-22T11:13:16;4.10;24.00
7902;DHT22;3996;49.674;10.716;2023-11-22T11:15:43;4.10;21.70
7902;DHT22;3996;49.674;10.716;2023-11-22T11:18:09;4.10;21.50
7902;DHT22;3996;49.674;10.716;2023-11-22T11:20:49;4.00;21.80
7902;DHT22;3996;49.674;10.716;2023-11-22T11:23:19;4.10;22.80
7902;DHT22;3996;49.674;10.716;2023-11-22T11:25:47;4.10;21.90
7902;DHT22;3996;49.674;10.716;2023-11-22T11:28:13;4.00;21.70
7902;DHT22;3996;49.674;10.716;2023-11-22T11:30:42;4.00;21.50
7902;DHT22;3996;49.674;10.716;2023-11-22T11:33:53;3.90;21.50
7902;DHT22;3996;49.674;10.716;2023-11-22T11:36:01;3.90;21.70
7902;DHT22;3996;49.674;10.716;2023-11-22T11:38:28;3.90;22.00
7902;DHT22;3996;49.674;10.716;2023-11-22T11:40:55;3.90;22.40
7902;DHT22;3996;49.674;10.716;2023-11-22T11:43:21;3.80;22.90
7902;DHT22;3996;49.674;10.716;2023-11-22T11:45:47;3.80;22.00
7902;DHT22;3996;49.674;10.716;2023-11-22T11:48:13;3.90;22.50
7902;DHT22;3996;49.674;10.716;2023-11-22T11:50:39;3.90;22.60
7902;DHT22;3996;49.674;10.716;2023-11-22T11:53:04;3.90;21.70
7902;DHT22;3996;49.674;10.716;2023-11-22T11:55:30;3.90;22.40
7902;DHT22;3996;49.674;10.716;2023-11-22T11:57:55;3.90;22.30
7902;DHT22;3996;49.674;10.716;2023-11-22T12:00:22;4.00;22.60
7902;DHT22;3996;49.674;10.716;2023-11-22T12:02:50;4.00;22.60
7902;DHT22;3996;49.674;10.716;2023-11-22T12:05:17;4.00;22.40
7902;DHT22;3996;49.674;10.716;2023-11-22T12:07:43;4.00;23.40
7902;DHT22;3996;49.674;10.716;2023-11-22T12:10:09;3.90;22.10
7902;DHT22;3996;49.674;10.716;2023-11-22T12:12:35;3.90;22.50
7902;DHT22;3996;49.674;10.716;2023-11-22T12:15:01;3.90;22.60
7902;DHT22;3996;49.674;10.716;2023-11-22T12:17:26;3.90;22.50
7902;DHT22;3996;49.674;10.716;2023-11-22T12:19:52;3.90;22.50
7902;DHT22;3996;49.674;10.716;2023-11-22T12:22:18;3.90;22.10
7902;DHT22;3996;49.674;10.716;2023-11-22T12:24:45;3.80;21.50
7902;DHT22;3996;49.674;10.716;2023-11-22T12:27:10;3.80;23.20
7902;DHT22;3996;49.674;10.716;2023-11-22T12:29:36;3.80;22.30
7902;DHT22;3996;49.674;10.716;2023-11-22T12:32:02;3.80;22.40
7902;DHT22;3996;49.674;10.716;2023-11-22T12:34:28;3.80;22.80
7902;DHT22;3996;49.674;10.716;2023-11-22T12:36:55;3.80;23.20
7902;DHT22;3996;49.674;10.716;2023-11-22T12:39:21;3.90;22.60
7902;DHT22;3996;49.674;10.716;2023-11-22T12:41:48;3.90;22.80
7902;DHT22;3996;49.674;10.716;2023-11-22T12:44:16;3.80;22.40
7902;DHT22;3996;49.674;10.716;2023-11-22T12:46:53;3.80;21.90
7902;DHT22;3996;49.674;10.716;2023-11-22T12:49:25;3.80;21.90
7902;DHT22;3996;49.674;10.716;2023-11-22T12:51:52;3.90;21.90
7902;DHT22;3996;49.674;10.716;2023-11-22T12:54:19;3.80;22.50
7902;DHT22;3996;49.674;10.716;2023-11-22T12:56:48;3.80;22.20
7902;DHT22;3996;49.674;10.716;2023-11-22T12:59:14;3.80;22.00
7902;DHT22;3996;49.674;10.716;2023-11-22T13:01:40;3.90;22.40
7902;DHT22;3996;49.674;10.716;2023-11-22T13:04:05;3.80;21.90
7902;DHT22;3996;49.674;10.716;2023-11-22T13:06:31;3.80;21.60
7902;DHT22;3996;49.674;10.716;2023-11-22T13:08:57;3.80;21.80
7902;DHT22;3996;49.674;10.716;2023-11-22T13:11:22;3.80;22.10
7902;DHT22;3996;49.674;10.716;2023-11-22T13:13:49;3.90;21.90
7902;DHT22;3996;49.674;10.716;2023-11-22T13:16:14;3.90;22.40
7902;DHT22;3996;49.674;10.716;2023-11-22T13:18:41;4.00;22.60
7902;DHT22;3996;49.674;10.716;2023-11-22T13:21:07;4.00;22.30
7902;DHT22;3996;49.674;10.716;2023-11-22T13:23:32;4.00;22.30
7902;DHT22;3996;49.674;10.716;2023-11-22T13:25:58;4.00;22.30
7902;DHT22;3996;49.674;10.716;2023-11-22T13:28:24;3.90;21.70
7902;DHT22;3996;49.674;10.716;2023-11-22T13:30:53;3.90;21.30
7902;DHT22;3996;49.674;10.716;2023-11-22T13:33:19;3.90;21.40
7902;DHT22;3996;49.674;10.716;2023-11-22T13:35:45;3.90;21.70
7902;DHT22;3996;49.674;10.716;2023-11-22T13:38:12;3.90;22.30
7902;DHT22;3996;49.674;10.716;2023-11-22T13:40:38;3.90;21.40
7902;DHT22;3996;49.674;10.716;2023-11-22T13:43:05;3.90;20.80
7902;DHT22;3996;49.674;10.716;2023-11-22T13:45:31;3.90;21.40
7902;DHT22;3996;49.674;10.716;2023-11-22T13:47:56;3.90;22.00
7902;DHT22;3996;49.674;10.716;2023-11-22T13:50:25;3.90;20.90
7902;DHT22;3996;49.674;10.716;2023-11-22T13:52:52;3.80;20.80
7902;DHT22;3996;49.674;10.716;2023-11-22T13:55:18;3.80;21.00
7902;DHT22;3996;49.674;10.716;2023-11-22T13:57:51;3.90;21.60
7902;DHT22;3996;49.674;10.716;2023-11-22T14:00:17;3.80;20.10
7902;DHT22;3996;49.674;10.716;2023-11-22T14:02:48;3.80;20.80
7902;DHT22;3996;49.674;10.716;2023-11-22T14:05:16;3.80;20.50
7902;DHT22;3996;49.674;10.716;2023-11-22T14:07:42;3.90;21.60
7902;DHT22;3996;49.674;10.716;2023-11-22T14:10:09;4.00;20.90
7902;DHT22;3996;49.674;10.716;2023-11-22T14:12:36;4.00;20.90
7902;DHT22;3996;49.674;10.716;2023-11-22T14:15:01;4.00;20.50
7902;DHT22;3996;49.674;10.716;2023-11-22T14:17:29;4.00;20.90
7902;DHT22;3996;49.674;10.716;2023-11-22T14:19:55;4.10;21.00
7902;DHT22;3996;49.674;10.716;2023-11-22T14:22:21;4.10;21.00
7902;DHT22;3996;49.674;10.716;2023-11-22T14:24:48;4.10;21.00
7902;DHT22;3996;49.674;10.716;2023-11-22T14:27:14;4.00;20.90
7902;DHT22;3996;49.674;10.716;2023-11-22T14:29:39;4.00;21.80
7902;DHT22;3996;49.674;10.716;2023-11-22T14:32:06;4.00;22.00
7902;DHT22;3996;49.674;10.716;2023-11-22T14:34:32;4.00;20.90
7902;DHT22;3996;49.674;10.716;2023-11-22T14:36:57;4.00;21.60
7902;DHT22;3996;49.674;10.716;2023-11-22T14:39:23;4.10;21.80
7902;DHT22;3996;49.674;10.716;2023-11-22T14:41:49;4.10;21.00
7902;DHT22;3996;49.674;10.716;2023-11-22T14:44:16;4.10;21.00
7902;DHT22;3996;49.674;10.716;2023-11-22T14:46:41;4.10;21.90
7902;DHT22;3996;49.674;10.716;2023-11-22T14:49:07;4.10;21.80
7902;DHT22;3996;49.674;10.716;2023-11-22T14:51:33;4.10;21.00
7902;DHT22;3996;49.674;10.716;2023-11-22T14:53:59;4.20;20.50
7902;DHT22;3996;49.674;10.716;2023-11-22T14:56:24;4.10;21.60
7902;DHT22;3996;49.674;10.716;2023-11-22T14:58:50;4.00;20.90
7902;DHT22;3996;49.674;10.716;2023-11-22T15:01:19;3.90;20.80
7902;DHT22;3996;49.674;10.716;2023-11-22T15:03:46;3.90;20.80
7902;DHT22;3996;49.674;10.716;2023-11-22T15:06:12;3.90;20.30
7902;DHT22;3996;49.674;10.716;2023-11-22T15:08:38;3.80;19.70
7902;DHT22;3996;49.674;10.716;2023-11-22T15:11:04;3.70;19.60
7902;DHT22;3996;49.674;10.716;2023-11-22T15:13:30;3.80;20.50
7902;DHT22;3996;49.674;10.716;2023-11-22T15:15:56;3.90;21.80
7902;DHT22;3996;49.674;10.716;2023-11-22T15:18:25;3.90;20.60
7902;DHT22;3996;49.674;10.716;2023-11-22T15:20:52;3.80;20.90
7902;DHT22;3996;49.674;10.716;2023-11-22T15:23:17;3.80;21.50
7902;DHT22;3996;49.674;10.716;2023-11-22T15:25:44;3.80;22.40
7902;DHT22;3996;49.674;10.716;2023-11-22T15:28:10;3.80;23.20
7902;DHT22;3996;49.674;10.716;2023-11-22T15:30:36;3.80;22.70
7902;DHT22;3996;49.674;10.716;2023-11-22T15:33:02;3.80;23.40
7902;DHT22;3996;49.674;10.716;2023-11-22T15:35:30;3.80;21.50
7902;DHT22;3996;49.674;10.716;2023-11-22T15:37:55;3.80;22.70
7902;DHT22;3996;49.674;10.716;2023-11-22T15:40:21;3.80;23.10
7902;DHT22;3996;49.674;10.716;2023-11-22T15:42:47;3.80;23.20
7902;DHT22;3996;49.674;10.716;2023-11-22T15:45:12;3.80;23.30
7902;DHT22;3996;49.674;10.716;2023-11-22T15:47:38;3.80;24.50
7902;DHT22;3996;49.674;10.716;2023-11-22T15:50:04;3.80;23.20
7902;DHT22;3996;49.674;10.716;2023-11-22T15:52:32;3.80;21.70
7902;DHT22;3996;49.674;10.716;2023-11-22T15:54:57;3.80;22.20
7902;DHT22;3996;49.674;10.716;2023-11-22T15:57:23;3.80;23.40
7902;DHT22;3996;49.674;10.716;2023-11-22T15:59:48;3.80;23.60
7902;DHT22;3996;49.674;10.716;2023-11-22T16:02:14;3.70;23.80
7902;DHT22;3996;49.674;10.716;2023-11-22T16:04:40;3.80;24.20